createdAt,value
2023-05-08T00:00:05.945Z,97354.19
2023-05-08T00:02:32.485Z,97350.59
2023-05-08T00:04:59.300Z,97350.25
2023-05-08T00:07:26.116Z,97352.63
2023-05-08T00:09:52.748Z,97340.56
2023-05-08T00:12:19.364Z,97348.38
2023-05-08T00:14:45.953Z,97341.97
2023-05-08T00:17:12.648Z,97358.69
2023-05-08T00:19:39.398Z,97350.25
2023-05-08T00:22:06.056Z,97357.16
2023-05-08T00:24:32.698Z,97356.69
2023-05-08T00:26:59.307Z,97358.28
2023-05-08T00:29:25.890Z,97359.06
2023-05-08T00:31:52.573Z,97357.97
2023-05-08T00:34:19.247Z,97355.03
2023-05-08T00:36:45.844Z,97360.41
2023-05-08T00:39:12.631Z,97351.94
2023-05-08T00:41:39.381Z,97346.63
2023-05-08T00:44:06.086Z,97361.38
2023-05-08T00:46:32.823Z,97359.47
2023-05-08T00:49:00.062Z,97352.91
2023-05-08T00:51:28.071Z,97368.56
2023-05-08T00:53:54.813Z,97353.84
2023-05-08T00:56:23.849Z,97356.41
2023-05-08T00:58:51.288Z,97357.31
2023-05-08T01:01:17.953Z,97354.50
2023-05-08T01:03:45.366Z,97363.13
2023-05-08T01:06:12.083Z,97359.22
2023-05-08T01:08:39.245Z,97353.56
2023-05-08T01:11:22.141Z,97362.81
2023-05-08T01:14:08.234Z,97371.13
2023-05-08T01:17:11.969Z,97376.56
2023-05-08T01:19:53.453Z,97370.81
2023-05-08T01:23:08.709Z,97371.72
2023-05-08T01:26:02.793Z,97371.72
2023-05-08T01:29:05.431Z,97370.19
2023-05-08T01:31:58.105Z,97371.56
2023-05-08T01:34:33.791Z,97368.91
2023-05-08T01:37:08.503Z,97362.03
2023-05-08T01:40:01.328Z,97363.59
2023-05-08T01:42:58.226Z,97363.47
2023-05-08T01:45:32.320Z,97360.47
2023-05-08T01:48:09.282Z,97357.78
2023-05-08T01:50:42.655Z,97359.53
2023-05-08T01:53:24.361Z,97363.13
2023-05-08T01:55:55.763Z,97366.72
2023-05-08T01:58:24.376Z,97365.44
2023-05-08T02:00:51.569Z,97360.13
2023-05-08T02:03:22.770Z,97360.72
2023-05-08T02:05:52.331Z,97363.72
2023-05-08T02:08:21.413Z,97361.97
2023-05-08T02:10:51.125Z,97366.66
2023-05-08T02:13:21.588Z,97371.06
2023-05-08T02:15:50.230Z,97369.16
2023-05-08T02:18:21.400Z,97372.28
2023-05-08T02:20:50.561Z,97373.88
2023-05-08T02:23:19.528Z,97364.78
2023-05-08T02:25:48.278Z,97370.06
2023-05-08T02:28:18.097Z,97366.28
2023-05-08T02:30:46.085Z,97375.19
2023-05-08T02:33:15.078Z,97373.16
2023-05-08T02:35:44.873Z,97378.16
2023-05-08T02:38:14.059Z,97383.47
2023-05-08T02:40:46.138Z,97383.47
2023-05-08T02:43:13.062Z,97368.16
2023-05-08T02:46:17.103Z,97373.81
2023-05-08T02:49:05.090Z,97378.16
2023-05-08T02:52:14.714Z,97379.28
2023-05-08T02:54:50.374Z,97379.44
2023-05-08T02:57:27.631Z,97376.44
2023-05-08T03:00:03.573Z,97378.75
2023-05-08T03:02:48.404Z,97372.66
2023-05-08T03:05:20.798Z,97383.91
2023-05-08T03:07:52.825Z,97385.28
2023-05-08T03:10:21.971Z,97384.50
2023-05-08T03:12:51.821Z,97379.34
2023-05-08T03:15:24.162Z,97385.88
2023-05-08T03:17:54.791Z,97382.44
2023-05-08T03:20:22.614Z,97386.81
2023-05-08T03:22:51.061Z,97389.97
2023-05-08T03:25:19.719Z,97398.56
2023-05-08T03:27:47.350Z,97400.41
2023-05-08T03:30:15.675Z,97382.13
2023-05-08T03:32:45.280Z,97404.34
2023-05-08T03:35:13.582Z,97401.59
2023-05-08T03:37:40.618Z,97399.88
2023-05-08T03:40:08.676Z,97396.28
2023-05-08T03:42:36.159Z,97406.00
2023-05-08T03:45:03.428Z,97405.31
2023-05-08T03:47:31.243Z,97411.75
2023-05-08T03:49:58.963Z,97388.41
2023-05-08T03:52:26.320Z,97411.94
2023-05-08T03:54:52.889Z,97405.56
2023-05-08T03:57:19.574Z,97410.41
2023-05-08T04:00:07.433Z,97410.41
2023-05-08T04:02:42.382Z,97412.59
2023-05-08T04:05:34.592Z,97410.56
2023-05-08T04:08:18.532Z,97420.44
2023-05-08T04:11:17.515Z,97419.81
2023-05-08T04:13:50.564Z,97426.09
2023-05-08T04:16:22.072Z,97417.03
2023-05-08T04:18:50.801Z,97418.44
2023-05-08T04:21:24.388Z,97421.13
2023-05-08T04:23:52.393Z,97406.72
2023-05-08T04:26:19.498Z,97422.38
2023-05-08T04:28:46.957Z,97425.88
2023-05-08T04:31:17.173Z,97431.22
2023-05-08T04:33:47.087Z,97411.97
2023-05-08T04:36:14.532Z,97432.78
2023-05-08T04:38:41.255Z,97428.72
2023-05-08T04:41:08.786Z,97430.59
2023-05-08T04:43:36.265Z,97428.72
2023-05-08T04:46:04.428Z,97427.47
2023-05-08T04:48:33.239Z,97438.59
2023-05-08T04:51:00.913Z,97425.44
2023-05-08T04:53:27.565Z,97412.13
2023-05-08T04:55:54.401Z,97419.00
2023-05-08T04:58:21.147Z,97419.63
2023-05-08T05:00:48.836Z,97428.09
2023-05-08T05:03:15.633Z,97413.38
2023-05-08T05:05:42.483Z,97417.59
2023-05-08T05:08:09.227Z,97410.50
2023-05-08T05:10:35.860Z,97413.94
2023-05-08T05:13:02.525Z,97409.84
2023-05-08T05:15:29.220Z,97401.34
2023-05-08T05:17:55.933Z,97409.16
2023-05-08T05:20:22.644Z,97398.78
2023-05-08T05:22:49.560Z,97408.47
2023-05-08T05:25:16.286Z,97402.00
2023-05-08T05:27:42.979Z,97403.56
2023-05-08T05:30:09.887Z,97407.00
2023-05-08T05:32:36.689Z,97397.69
2023-05-08T05:35:03.328Z,97400.69
2023-05-08T05:37:29.917Z,97399.22
2023-05-08T05:39:56.545Z,97404.41
2023-05-08T05:42:23.355Z,97396.81
2023-05-08T05:44:50.053Z,97395.03
2023-05-08T05:47:16.838Z,97390.94
2023-05-08T05:49:47.398Z,97395.63
2023-05-08T05:52:14.837Z,97398.09
2023-05-08T05:54:43.987Z,97390.78
2023-05-08T05:57:10.698Z,97387.25
2023-05-08T05:59:37.466Z,97392.84
2023-05-08T06:02:04.140Z,97395.53
2023-05-08T06:04:30.973Z,97386.63
2023-05-08T06:06:57.592Z,97380.94
2023-05-08T06:09:24.179Z,97394.13
2023-05-08T06:11:50.867Z,97396.41
2023-05-08T06:14:17.454Z,97391.59
2023-05-08T06:16:45.124Z,97389.47
2023-05-08T06:19:12.188Z,97392.53
2023-05-08T06:21:39.921Z,97391.63
2023-05-08T06:24:07.185Z,97381.34
2023-05-08T06:26:33.892Z,97382.75
2023-05-08T06:29:00.467Z,97383.59
2023-05-08T06:31:27.360Z,97383.38
2023-05-08T06:33:54.023Z,97375.56
2023-05-08T06:36:20.679Z,97374.81
2023-05-08T06:38:47.298Z,97371.66
2023-05-08T06:41:15.330Z,97363.13
2023-05-08T06:43:42.144Z,97360.66
2023-05-08T06:46:08.794Z,97364.19
2023-05-08T06:48:35.740Z,97367.69
2023-05-08T06:51:02.695Z,97360.16
2023-05-08T06:53:29.261Z,97369.16
2023-05-08T06:55:57.958Z,97355.31
2023-05-08T06:58:24.794Z,97379.06
2023-05-08T07:00:51.500Z,97365.47
2023-05-08T07:03:18.080Z,97358.28
2023-05-08T07:05:44.635Z,97358.59
2023-05-08T07:08:11.196Z,97360.47
2023-05-08T07:10:37.767Z,97348.56
2023-05-08T07:13:04.461Z,97345.47
2023-05-08T07:15:34.234Z,97340.03
2023-05-08T07:18:01.205Z,97347.03
2023-05-08T07:20:28.194Z,97346.53
2023-05-08T07:22:54.867Z,97350.25
2023-05-08T07:25:21.757Z,97339.47
2023-05-08T07:27:48.315Z,97342.50
2023-05-08T07:30:15.367Z,97338.66
2023-05-08T07:32:42.079Z,97336.75
2023-05-08T07:35:11.110Z,97331.13
2023-05-08T07:37:38.928Z,97325.59
2023-05-08T07:40:06.299Z,97323.09
2023-05-08T07:42:39.107Z,97321.13
2023-05-08T07:45:06.270Z,97313.06
2023-05-08T07:47:32.827Z,97330.06
2023-05-08T07:49:59.475Z,97330.78
2023-05-08T07:52:26.223Z,97331.03
2023-05-08T07:54:52.878Z,97330.91
2023-05-08T07:57:19.568Z,97319.50
2023-05-08T07:59:46.180Z,97325.13
2023-05-08T08:02:13.223Z,97320.00
2023-05-08T08:04:40.066Z,97317.31
2023-05-08T08:07:06.673Z,97314.56
2023-05-08T08:09:33.354Z,97318.13
2023-05-08T08:12:00.350Z,97309.50
2023-05-08T08:14:27.625Z,97311.22
2023-05-08T08:16:54.201Z,97316.94
2023-05-08T08:19:20.955Z,97307.94
2023-05-08T08:21:47.587Z,97301.91
2023-05-08T08:24:14.222Z,97308.13
2023-05-08T08:26:40.851Z,97306.41
2023-05-08T08:29:07.539Z,97302.16
2023-05-08T08:31:34.264Z,97307.28
2023-05-08T08:34:01.001Z,97298.69
2023-05-08T08:36:28.105Z,97309.31
2023-05-08T08:38:54.688Z,97305.34
2023-05-08T08:41:21.838Z,97296.28
2023-05-08T08:43:48.675Z,97295.59
2023-05-08T08:46:16.349Z,97294.53
2023-05-08T08:48:47.567Z,97299.53
2023-05-08T08:51:43.000Z,97306.22
2023-05-08T08:54:17.471Z,97299.38
2023-05-08T08:56:48.108Z,97289.66
2023-05-08T08:59:16.597Z,97287.22
2023-05-08T09:01:47.738Z,97294.34
2023-05-08T09:04:14.581Z,97303.16
2023-05-08T09:06:41.375Z,97311.03
2023-05-08T09:09:07.980Z,97309.09
2023-05-08T09:11:37.661Z,97306.94
2023-05-08T09:14:04.278Z,97317.28
2023-05-08T09:16:31.073Z,97322.63
2023-05-08T09:18:57.826Z,97324.13
2023-05-08T09:21:24.886Z,97317.06
2023-05-08T09:24:02.760Z,97322.28
2023-05-08T09:26:34.017Z,97322.41
2023-05-08T09:29:14.406Z,97323.09
2023-05-08T09:31:42.947Z,97319.56
2023-05-08T09:34:11.166Z,97337.56
2023-05-08T09:36:40.069Z,97333.56
2023-05-08T09:39:13.976Z,97332.59
2023-05-08T09:42:00.255Z,97331.91
2023-05-08T09:44:26.982Z,97337.19
2023-05-08T09:47:13.476Z,97330.19
2023-05-08T09:49:56.769Z,97318.72
2023-05-08T09:52:24.870Z,97320.75
2023-05-08T09:54:58.926Z,97315.72
2023-05-08T09:57:29.943Z,97314.59
2023-05-08T10:00:10.345Z,97316.41
2023-05-08T10:02:39.080Z,97321.56
2023-05-08T10:05:23.832Z,97316.97
2023-05-08T10:07:50.773Z,97310.44
2023-05-08T10:10:26.286Z,97306.56
2023-05-08T10:12:54.881Z,97306.03
2023-05-08T10:15:42.758Z,97289.59
2023-05-08T10:18:12.178Z,97272.19
2023-05-08T10:20:41.905Z,97264.28
2023-05-08T10:23:14.214Z,97284.72
2023-05-08T10:25:46.851Z,97271.72
2023-05-08T10:28:18.549Z,97263.22
2023-05-08T10:30:48.947Z,97269.09
2023-05-08T10:33:20.272Z,97271.47
2023-05-08T10:35:48.172Z,97269.88
2023-05-08T10:38:16.630Z,97267.16
2023-05-08T10:40:43.680Z,97270.47
2023-05-08T10:43:11.396Z,97271.53
2023-05-08T10:45:38.795Z,97268.94
2023-05-08T10:48:36.411Z,97256.41
2023-05-08T10:51:14.269Z,97258.19
2023-05-08T10:54:05.459Z,97255.38
2023-05-08T10:56:32.079Z,97249.69
2023-05-08T10:58:59.714Z,97249.69
2023-05-08T11:01:27.138Z,97249.69
2023-05-08T11:03:56.239Z,97242.59
2023-05-08T11:06:46.749Z,97235.94
2023-05-08T11:09:26.999Z,97237.50
2023-05-08T11:12:09.323Z,97237.03
2023-05-08T11:14:41.834Z,97235.34
2023-05-08T11:17:09.453Z,97218.03
2023-05-08T11:19:37.504Z,97215.94
2023-05-08T11:22:23.908Z,97206.69
2023-05-08T11:24:53.416Z,97191.84
2023-05-08T11:27:42.542Z,97202.47
2023-05-08T11:30:35.164Z,97189.91
2023-05-08T11:33:04.917Z,97182.13
2023-05-08T11:35:45.161Z,97178.06
2023-05-08T11:38:36.236Z,97167.34
2023-05-08T11:41:22.111Z,97166.38
2023-05-08T11:44:02.375Z,97157.09
2023-05-08T11:46:42.876Z,97161.69
2023-05-08T11:49:14.583Z,97151.44
2023-05-08T11:51:45.015Z,97157.75
2023-05-08T11:54:18.482Z,97134.81
2023-05-08T11:56:56.907Z,97133.47
2023-05-08T11:59:23.673Z,97117.94
2023-05-08T12:02:04.043Z,97126.53
2023-05-08T12:04:44.646Z,97134.69
2023-05-08T12:07:11.848Z,97131.72
2023-05-08T12:09:38.373Z,97136.44
2023-05-08T12:12:05.157Z,97125.97
2023-05-08T12:14:31.793Z,97127.06
2023-05-08T12:16:58.480Z,97125.53
2023-05-08T12:19:25.282Z,97131.94
2023-05-08T12:21:52.027Z,97123.31
2023-05-08T12:24:25.589Z,97109.22
2023-05-08T12:26:56.427Z,97098.94
2023-05-08T12:29:24.143Z,97094.44
2023-05-08T12:31:51.903Z,97089.91
2023-05-08T12:34:18.649Z,97069.06
2023-05-08T12:36:45.252Z,97055.50
2023-05-08T12:39:16.965Z,97075.69
2023-05-08T12:41:50.216Z,97061.66
2023-05-08T12:44:30.190Z,97060.22
2023-05-08T12:46:58.065Z,97048.31
2023-05-08T12:49:26.804Z,97061.28
2023-05-08T12:52:07.716Z,97056.03
2023-05-08T12:54:46.294Z,97049.16
2023-05-08T12:57:14.505Z,97053.16
2023-05-08T12:59:42.366Z,97062.41
2023-05-08T13:02:22.129Z,97065.19
2023-05-08T13:04:53.386Z,97066.09
2023-05-08T13:07:20.154Z,97054.72
2023-05-08T13:10:04.454Z,97059.81
2023-05-08T13:12:31.687Z,97052.09
2023-05-08T13:14:58.282Z,97060.00
2023-05-08T13:17:25.061Z,97053.38
2023-05-08T13:19:51.866Z,97056.50
2023-05-08T13:22:18.679Z,97049.56
2023-05-08T13:24:45.277Z,97040.16
2023-05-08T13:27:13.435Z,97042.69
2023-05-08T13:29:40.085Z,97042.03
2023-05-08T13:32:06.753Z,97050.06
2023-05-08T13:34:33.990Z,97046.06
2023-05-08T13:37:02.732Z,97044.31
2023-05-08T13:39:32.002Z,97041.25
2023-05-08T13:41:58.860Z,97044.91
2023-05-08T13:44:25.805Z,97034.53
2023-05-08T13:46:52.359Z,97032.25
2023-05-08T13:49:19.950Z,97045.47
2023-05-08T13:51:49.176Z,97036.19
2023-05-08T13:54:18.490Z,97043.47
2023-05-08T13:56:46.487Z,97034.75
2023-05-08T13:59:13.146Z,97033.97
2023-05-08T14:01:39.832Z,97037.03
2023-05-08T14:04:06.803Z,97039.91
2023-05-08T14:06:33.544Z,97045.19
2023-05-08T14:09:00.135Z,97056.31
2023-05-08T14:11:27.344Z,97051.38
2023-05-08T14:13:53.785Z,97053.97
2023-05-08T14:16:20.635Z,97060.13
2023-05-08T14:18:47.396Z,97072.00
2023-05-08T14:21:13.982Z,97081.53
2023-05-08T14:23:41.287Z,97094.47
2023-05-08T14:26:08.071Z,97128.66
2023-05-08T14:28:34.681Z,97142.03
2023-05-08T14:31:01.317Z,97142.19
2023-05-08T14:33:28.023Z,97138.84
2023-05-08T14:35:54.717Z,97147.88
2023-05-08T14:38:21.344Z,97165.25
2023-05-08T14:40:51.300Z,97168.63
2023-05-08T14:43:18.203Z,97162.31
2023-05-08T14:45:44.842Z,97182.28
2023-05-08T15:16:56.972Z,97286.75
2023-05-08T15:19:23.554Z,97289.84
2023-05-08T15:21:50.174Z,97295.56
2023-05-08T15:24:16.859Z,97294.22
2023-05-08T15:26:43.519Z,97297.31
2023-05-08T15:29:10.095Z,97295.38
2023-05-08T15:31:36.741Z,97282.16
2023-05-08T15:34:03.438Z,97292.19
2023-05-08T15:36:32.509Z,97298.84
2023-05-08T15:38:59.086Z,97285.38
2023-05-08T15:41:25.734Z,97285.34
2023-05-08T15:43:52.393Z,97279.63
2023-05-08T15:46:19.008Z,97272.91
2023-05-08T15:48:45.668Z,97260.25
2023-05-08T15:51:12.380Z,97252.47
2023-05-08T15:53:39.045Z,97251.88
2023-05-08T15:56:06.494Z,97249.06
2023-05-08T15:58:33.128Z,97264.56
2023-05-08T16:00:59.726Z,97253.34
2023-05-08T16:03:26.530Z,97262.66
2023-05-08T16:05:53.230Z,97276.06
2023-05-08T16:08:19.902Z,97287.66
2023-05-08T16:10:46.682Z,97287.88
2023-05-08T16:13:13.298Z,97289.41
2023-05-08T16:15:40.607Z,97279.09
2023-05-08T16:18:07.227Z,97273.16
2023-05-08T16:20:35.777Z,97265.63
2023-05-08T16:23:03.070Z,97267.44
2023-05-08T16:25:29.726Z,97273.94
2023-05-08T16:27:56.380Z,97266.16
2023-05-08T16:30:23.090Z,97261.50
2023-05-08T16:32:49.792Z,97263.50
2023-05-08T16:35:17.066Z,97272.59
2023-05-08T16:37:43.848Z,97278.72
2023-05-08T16:40:11.144Z,97275.34
2023-05-08T16:42:37.859Z,97283.31
2023-05-08T16:45:08.333Z,97287.94
2023-05-08T16:47:35.281Z,97287.41
2023-05-08T16:50:02.160Z,97287.31
2023-05-08T16:52:28.898Z,97285.94
2023-05-08T16:54:55.591Z,97291.97
2023-05-08T16:57:22.153Z,97286.22
2023-05-08T16:59:49.010Z,97293.75
2023-05-08T17:02:19.065Z,97295.00
2023-05-08T17:04:49.644Z,97289.59
2023-05-08T17:07:17.266Z,97285.78
2023-05-08T17:09:44.618Z,97278.53
2023-05-08T17:12:11.213Z,97288.34
2023-05-08T17:14:39.467Z,97279.31
2023-05-08T17:17:06.998Z,97285.31
2023-05-08T17:19:33.817Z,97280.38
2023-05-08T17:22:00.523Z,97281.94
2023-05-08T17:24:27.709Z,97296.69
2023-05-08T17:26:54.548Z,97287.63
2023-05-08T17:29:21.258Z,97297.22
2023-05-08T17:31:47.895Z,97301.59
2023-05-08T17:34:14.814Z,97308.59
2023-05-08T17:36:41.537Z,97314.47
2023-05-08T17:39:08.482Z,97308.03
2023-05-08T17:41:35.072Z,97305.91
2023-05-08T17:44:01.938Z,97295.56
2023-05-08T17:46:28.615Z,97308.16
2023-05-08T17:48:55.282Z,97323.22
2023-05-08T17:51:22.053Z,97314.16
2023-05-08T17:53:48.682Z,97324.41
2023-05-08T17:56:20.369Z,97320.47
2023-05-08T17:58:47.155Z,97325.09
2023-05-08T18:01:13.855Z,97313.56
2023-05-08T18:03:40.953Z,97329.84
2023-05-08T18:06:08.094Z,97325.03
2023-05-08T18:08:34.726Z,97336.66
2023-05-08T18:11:01.399Z,97342.84
2023-05-08T18:13:28.129Z,97346.44
2023-05-08T18:15:54.904Z,97348.53
2023-05-08T18:18:21.660Z,97351.56
2023-05-08T18:20:48.401Z,97353.50
2023-05-08T18:23:15.080Z,97353.41
2023-05-08T18:25:42.015Z,97352.34
2023-05-08T18:28:08.625Z,97355.97
2023-05-08T18:30:36.554Z,97358.53
2023-05-08T18:33:03.410Z,97367.59
2023-05-08T18:35:30.242Z,97364.19
2023-05-08T18:37:56.872Z,97360.53
2023-05-08T18:40:23.508Z,97364.34
2023-05-08T18:42:50.363Z,97374.28
2023-05-08T18:45:17.163Z,97372.94
2023-05-08T18:47:43.824Z,97378.59
2023-05-08T18:50:10.867Z,97381.44
2023-05-08T18:52:37.572Z,97389.16
2023-05-08T18:55:04.466Z,97389.44
2023-05-08T18:57:31.227Z,97388.59
2023-05-08T18:59:57.862Z,97391.16
2023-05-08T19:02:24.932Z,97392.72
2023-05-08T19:04:51.636Z,97388.25
2023-05-08T19:07:18.482Z,97383.56
2023-05-08T19:09:45.088Z,97392.56
2023-05-08T19:12:11.846Z,97400.78
2023-05-08T19:14:38.529Z,97390.41
2023-05-08T19:17:05.143Z,97396.94
2023-05-08T19:19:31.754Z,97400.78
2023-05-08T19:21:58.529Z,97390.41
2023-05-08T19:24:29.780Z,97398.44
2023-05-08T19:27:00.002Z,97394.81
2023-05-08T19:29:26.919Z,97390.41
2023-05-08T19:31:53.590Z,97398.22
2023-05-08T19:34:20.288Z,97401.06
2023-05-08T19:36:47.008Z,97401.34
2023-05-08T19:39:14.683Z,97399.50
2023-05-08T19:41:41.413Z,97395.13
2023-05-08T19:44:08.082Z,97399.22
2023-05-08T19:46:34.717Z,97402.75
2023-05-08T19:49:01.509Z,97402.19
2023-05-08T19:51:28.142Z,97404.75
2023-05-08T19:53:54.770Z,97391.84
2023-05-08T19:56:21.444Z,97401.41
2023-05-08T19:58:48.054Z,97399.66
2023-05-08T20:01:14.923Z,97403.75
2023-05-08T20:03:41.744Z,97400.63
2023-05-08T20:06:08.644Z,97396.94
2023-05-08T20:08:35.427Z,97395.94
2023-05-08T20:11:04.043Z,97402.59
2023-05-08T20:13:30.857Z,97398.47
2023-05-08T20:15:58.765Z,97395.94
2023-05-08T20:18:25.831Z,97392.63
2023-05-08T20:20:52.454Z,97394.44
2023-05-08T20:23:19.065Z,97390.25
2023-05-08T20:25:47.697Z,97389.91
2023-05-08T20:28:15.306Z,97386.56
2023-05-08T20:30:42.030Z,97390.69
2023-05-08T20:33:08.829Z,97384.44
2023-05-08T20:35:36.135Z,97393.25
2023-05-08T20:38:02.645Z,97386.78
2023-05-08T20:40:29.300Z,97381.13
2023-05-08T20:42:55.973Z,97379.34
2023-05-08T20:45:22.661Z,97386.28
2023-05-08T20:47:49.342Z,97387.56
2023-05-08T20:50:16.558Z,97390.13
2023-05-08T20:52:43.207Z,97387.56
2023-05-08T20:55:10.295Z,97386.28
2023-05-08T20:57:36.929Z,97388.53
2023-05-08T21:00:04.321Z,97378.00
2023-05-08T21:02:30.930Z,97374.38
2023-05-08T21:04:57.612Z,97384.75
2023-05-08T21:07:24.276Z,97380.03
2023-05-08T21:09:51.201Z,97387.75
2023-05-08T21:12:17.905Z,97387.56
2023-05-08T21:14:44.467Z,97381.91
2023-05-08T21:17:11.111Z,97388.25
2023-05-08T21:19:37.814Z,97387.69
2023-05-08T21:22:05.009Z,97393.63
2023-05-08T21:24:31.587Z,97395.50
2023-05-08T21:26:59.765Z,97387.41
2023-05-08T21:29:26.521Z,97388.09
2023-05-08T21:31:53.188Z,97388.81
2023-05-08T21:34:22.438Z,97367.31
2023-05-08T21:36:49.436Z,97388.63
2023-05-08T21:39:16.026Z,97387.03
2023-05-08T21:41:43.795Z,97382.75
2023-05-08T21:44:15.461Z,97389.41
2023-05-08T21:46:42.130Z,97387.66
2023-05-08T21:49:08.740Z,97386.06
2023-05-08T21:51:35.396Z,97381.38
2023-05-08T21:54:02.139Z,97382.88
2023-05-08T21:56:28.795Z,97380.81
2023-05-08T21:58:55.824Z,97367.53
2023-05-08T22:01:22.479Z,97383.63
2023-05-08T22:03:49.477Z,97381.88
2023-05-08T22:06:16.257Z,97378.47
2023-05-08T22:08:42.916Z,97380.34
2023-05-08T22:11:09.512Z,97371.53
2023-05-08T22:13:36.234Z,97381.19
2023-05-08T22:16:02.831Z,97383.03
2023-05-08T22:18:29.842Z,97384.31
2023-05-08T22:20:56.501Z,97372.31
2023-05-08T22:23:23.100Z,97383.16
2023-05-08T22:25:51.681Z,97381.88
2023-05-08T22:28:18.245Z,97390.66
2023-05-08T22:30:44.873Z,97380.13
2023-05-08T22:33:11.555Z,97377.88
2023-05-08T22:35:38.352Z,97378.09
2023-05-08T22:38:05.011Z,97379.84
2023-05-08T22:40:31.881Z,97373.91
2023-05-08T22:42:58.940Z,97373.91
2023-05-08T22:45:27.090Z,97376.16
2023-05-08T22:47:54.596Z,97371.06
2023-05-08T22:50:21.623Z,97371.75
2023-05-08T22:52:48.252Z,97372.03
2023-05-08T22:55:16.114Z,97376.44
2023-05-08T22:57:43.446Z,97376.16
2023-05-08T23:00:10.579Z,97373.59
2023-05-08T23:02:37.356Z,97368.63
2023-05-08T23:05:04.542Z,97370.19
2023-05-08T23:07:31.311Z,97367.75
2023-05-08T23:09:57.971Z,97370.78
2023-05-08T23:12:24.633Z,97366.59
2023-05-08T23:14:52.060Z,97353.09
2023-05-08T23:17:18.876Z,97356.81
2023-05-08T23:19:45.709Z,97346.66
2023-05-08T23:22:12.512Z,97368.84
2023-05-08T23:24:39.093Z,97351.56
2023-05-08T23:27:05.762Z,97362.38
2023-05-08T23:29:32.322Z,97357.97
2023-05-08T23:31:59.933Z,97346.50
2023-05-08T23:34:26.569Z,97363.25
2023-05-08T23:36:53.389Z,97342.50
2023-05-08T23:39:20.078Z,97348.03
2023-05-08T23:41:46.697Z,97340.81
2023-05-08T23:44:13.320Z,97342.78
2023-05-08T23:46:39.940Z,97345.09
2023-05-08T23:49:07.045Z,97341.59
2023-05-08T23:51:33.765Z,97342.00
2023-05-08T23:54:00.435Z,97335.25
2023-05-08T23:56:27.168Z,97331.25
2023-05-08T23:58:53.741Z,97334.75
